Time;durP1;ratioP1;P1;durP2;ratioP2;P2;SDS_P1;SDS_P2;PMS_P1;PMS_P2;Temp;Humidity;BMP_temperature;BMP_pressure;BME280_temperature;BME280_humidity;BME280_pressure;Samples;Min_cycle;Max_cycle;Signal;HPM_P1;HPM_P2
2023/04/20 00:00:50;;;;;;;;;;;;;;;21.84;30.92;97304.22;4991980;28;1839;-78
2023/04/20 00:03:20;;;;;;;;;;;;;;;21.69;31.40;97303.19;4998196;28;926;-79
2023/04/20 00:05:48;;;;;;;;;;;;;;;21.74;31.29;97308.25;4993815;28;1910;-79
2023/04/20 00:08:14;;;;;;;;;;;;;;;21.64;31.30;97306.63;5000858;28;1100;-77
2023/04/20 00:10:39;;;;;;;;;;;;;;;21.72;31.32;97307.94;4999170;28;1421;-77
2023/04/20 00:13:05;;;;;;;;;;;;;;;21.63;31.77;97305.06;4997832;28;908;-76
2023/04/20 00:15:32;;;;;;;;;;;;;;;22.46;30.60;97305.47;4998014;28;945;-78
2023/04/20 00:17:57;;;;;;;;;;;;;;;22.58;30.41;97310.22;4998035;28;910;-79
2023/04/20 00:20:23;;;;;;;;;;;;;;;22.64;30.29;97308.38;4987962;28;1395;-78
2023/04/20 00:22:49;;;;;;;;;;;;;;;22.25;30.61;97299.41;4997533;28;1039;-79
2023/04/20 00:25:14;;;;;;;;;;;;;;;22.12;30.69;97301.56;4981354;28;1906;-79
2023/04/20 00:27:40;;;;;;;;;;;;;;;21.75;30.74;97295.69;4981581;28;933;-78
2023/04/20 00:30:06;;;;;;;;;;;;;;;21.85;30.74;97288.03;4948067;28;1494;-78
2023/04/20 00:32:32;;;;;;;;;;;;;;;21.94;30.70;97295.78;4978404;28;949;-78
2023/04/20 00:34:57;;;;;;;;;;;;;;;22.17;30.47;97297.34;4977650;28;1011;-77
2023/04/20 00:37:24;;;;;;;;;;;;;;;21.95;30.63;97292.47;4969493;28;1195;-78
2023/04/20 00:39:53;;;;;;;;;;;;;;;21.85;30.66;97300.13;4976304;28;1421;-78
2023/04/20 00:42:19;;;;;;;;;;;;;;;22.35;30.95;97303.88;4958975;29;1248;-78
2023/04/20 00:44:45;;;;;;;;;;;;;;;22.66;30.12;97294.50;4958549;29;1969;-78
2023/04/20 00:47:10;;;;;;;;;;;;;;;22.68;30.17;97297.66;4942817;29;1239;-78
2023/04/20 00:49:36;;;;;;;;;;;;;;;22.47;30.14;97292.88;4962086;28;1634;-77
2023/04/20 00:52:01;;;;;;;;;;;;;;;21.88;30.93;97300.50;4945564;28;964;-77
2023/04/20 00:54:27;;;;;;;;;;;;;;;21.81;31.00;97276.03;4977903;28;1072;-79
2023/04/20 00:56:53;;;;;;;;;;;;;;;21.97;30.63;97275.84;4978098;28;985;-77
2023/04/20 00:59:19;;;;;;;;;;;;;;;22.16;30.19;97278.75;4976813;28;1367;-78
2023/04/20 01:01:44;;;;;;;;;;;;;;;22.62;30.60;97282.53;4992051;28;1297;-78
2023/04/20 01:04:10;;;;;;;;;;;;;;;22.67;30.16;97290.41;5007490;28;1902;-78
2023/04/20 01:06:35;;;;;;;;;;;;;;;22.66;30.33;97286.00;5004891;28;1271;-78
2023/04/20 01:09:01;;;;;;;;;;;;;;;22.31;30.59;97285.44;5004430;28;1245;-78
2023/04/20 01:11:28;;;;;;;;;;;;;;;22.04;30.76;97278.38;5036512;28;1367;-78
2023/04/20 01:13:54;;;;;;;;;;;;;;;21.98;30.55;97291.56;5038184;28;992;-77
2023/04/20 01:16:20;;;;;;;;;;;;;;;21.79;31.03;97281.41;4980333;28;1309;-78
2023/04/20 01:18:47;;;;;;;;;;;;;;;21.84;30.88;97283.63;4980328;28;1223;-78
2023/04/20 01:21:13;;;;;;;;;;;;;;;21.98;30.81;97285.13;4960771;28;1583;-78
2023/04/20 01:23:38;;;;;;;;;;;;;;;21.98;30.89;97279.44;4961030;28;1982;-78
2023/04/20 01:26:10;;;;;;;;;;;;;;;21.98;30.74;97279.44;4977682;28;1284;-79
2023/04/20 01:28:36;;;;;;;;;;;;;;;21.81;31.38;97288.19;4960778;28;1110;-78
2023/04/20 01:31:02;;;;;;;;;;;;;;;21.84;31.17;97280.78;4971602;28;1438;-79
2023/04/20 01:33:30;;;;;;;;;;;;;;;21.75;31.33;97273.03;4960872;28;1346;-78
2023/04/20 01:35:56;;;;;;;;;;;;;;;22.06;30.97;97275.06;4961185;28;943;-78
2023/04/20 01:38:22;;;;;;;;;;;;;;;22.72;29.87;97275.59;4944714;28;1171;-79
2023/04/20 01:40:48;;;;;;;;;;;;;;;22.56;29.97;97285.19;4971352;28;1527;-78
2023/04/20 01:43:13;;;;;;;;;;;;;;;22.72;29.85;97278.44;4979920;28;1022;-78
2023/04/20 01:45:39;;;;;;;;;;;;;;;21.99;30.60;97278.19;4964636;28;1987;-78
2023/04/20 01:48:04;;;;;;;;;;;;;;;21.92;30.62;97270.00;5009823;28;954;-79
2023/04/20 01:50:31;;;;;;;;;;;;;;;21.87;30.80;97273.41;5015704;28;1496;-79
2023/04/20 01:52:57;;;;;;;;;;;;;;;21.92;30.74;97270.78;5016549;28;933;-78
2023/04/20 01:55:22;;;;;;;;;;;;;;;21.84;30.98;97272.28;5000709;28;1227;-78
2023/04/20 01:57:50;;;;;;;;;;;;;;;22.63;30.01;97267.88;5016828;28;1034;-78
2023/04/20 02:00:16;;;;;;;;;;;;;;;22.73;29.64;97277.19;5015099;28;1397;-77
2023/04/20 02:02:42;;;;;;;;;;;;;;;22.46;30.08;97271.47;4960674;28;1277;-78
2023/04/20 02:05:08;;;;;;;;;;;;;;;21.85;31.07;97271.81;4976853;28;1981;-79
2023/04/20 02:07:33;;;;;;;;;;;;;;;21.99;30.45;97281.03;4960484;28;1296;-78
2023/04/20 02:09:59;;;;;;;;;;;;;;;21.71;30.94;97283.72;4959511;28;1264;-78
2023/04/20 02:12:25;;;;;;;;;;;;;;;21.90;30.72;97295.91;4944148;28;1639;-78
2023/04/20 02:14:50;;;;;;;;;;;;;;;21.91;30.55;97297.50;4957090;28;993;-79
2023/04/20 02:17:16;;;;;;;;;;;;;;;21.93;30.50;97288.56;4957469;28;1027;-77
2023/04/20 02:19:42;;;;;;;;;;;;;;;21.99;30.80;97286.69;4940667;29;1200;-78
2023/04/20 02:22:08;;;;;;;;;;;;;;;22.43;30.43;97286.56;4960105;28;1375;-79
2023/04/20 02:24:34;;;;;;;;;;;;;;;22.53;30.10;97285.31;4940523;29;1911;-78
2023/04/20 02:27:00;;;;;;;;;;;;;;;22.60;30.01;97285.03;4941647;29;1338;-78
2023/04/20 02:29:25;;;;;;;;;;;;;;;22.13;30.52;97285.38;4956897;29;1031;-79
2023/04/20 02:31:51;;;;;;;;;;;;;;;22.28;30.34;97286.38;4960447;28;1427;-79
2023/04/20 02:34:16;;;;;;;;;;;;;;;22.04;30.33;97277.59;4956775;28;1050;-78
2023/04/20 02:36:42;;;;;;;;;;;;;;;22.42;30.04;97276.47;4957015;29;1109;-78
2023/04/20 02:39:11;;;;;;;;;;;;;;;21.87;30.71;97274.22;4961528;28;1342;-78
2023/04/20 02:41:36;;;;;;;;;;;;;;;21.99;30.40;97275.34;4968275;28;1704;-79
2023/04/20 02:44:02;;;;;;;;;;;;;;;21.76;30.88;97268.97;4975963;28;1891;-78
2023/04/20 02:46:29;;;;;;;;;;;;;;;21.58;31.63;97268.84;4975944;28;1071;-77
2023/04/20 02:48:55;;;;;;;;;;;;;;;22.52;30.55;97272.41;4977477;28;1316;-78
2023/04/20 02:51:21;;;;;;;;;;;;;;;22.66;29.96;97269.00;4976659;28;1605;-78
2023/04/20 02:53:46;;;;;;;;;;;;;;;22.52;29.90;97272.41;4957698;28;1549;-79
2023/04/20 02:56:23;;;;;;;;;;;;;;;22.30;29.90;97278.97;4946966;28;1219;-78
2023/04/20 02:58:54;;;;;;;;;;;;;;;22.11;30.03;97266.00;4959949;28;1367;-79
2023/04/20 03:01:31;;;;;;;;;;;;;;;22.12;30.10;97272.44;4979180;28;1268;-78
2023/04/20 03:04:03;;;;;;;;;;;;;;;21.98;30.66;97268.13;4948504;28;1967;-78
2023/04/20 03:06:31;;;;;;;;;;;;;;;22.14;30.29;97267.13;4963390;28;1136;-79
2023/04/20 03:08:57;;;;;;;;;;;;;;;22.04;30.34;97257.75;4962136;28;1492;-79
2023/04/20 03:11:41;;;;;;;;;;;;;;;21.77;30.81;97270.53;4964613;28;1208;-78
2023/04/20 03:14:09;;;;;;;;;;;;;;;22.09;30.47;97271.31;4996105;28;1361;-78
2023/04/20 03:16:35;;;;;;;;;;;;;;;22.01;30.35;97270.00;4963476;28;1152;-78
2023/04/20 03:19:01;;;;;;;;;;;;;;;21.54;31.20;97268.19;4996299;28;1354;-78
2023/04/20 03:21:27;;;;;;;;;;;;;;;21.56;31.50;97266.50;4996434;28;1644;-78
2023/04/20 03:23:53;;;;;;;;;;;;;;;21.60;31.27;97260.66;4995909;28;1898;-78
2023/04/20 03:26:19;;;;;;;;;;;;;;;21.79;30.82;97264.41;4980219;28;1275;-78
2023/04/20 03:28:57;;;;;;;;;;;;;;;21.89;30.65;97270.91;4995800;28;1295;-78
2023/04/20 03:31:25;;;;;;;;;;;;;;;22.28;30.68;97270.16;4996487;28;1522;-78
2023/04/20 03:33:52;;;;;;;;;;;;;;;22.49;30.22;97267.69;4997480;28;1193;-78
2023/04/20 03:36:18;;;;;;;;;;;;;;;22.52;29.93;97272.41;4984013;28;1241;-77
2023/04/20 03:38:44;;;;;;;;;;;;;;;22.16;30.22;97265.38;4999258;28;1159;-78
2023/04/20 03:41:10;;;;;;;;;;;;;;;21.97;30.53;97266.53;5016539;28;1309;-78
2023/04/20 03:43:37;;;;;;;;;;;;;;;21.69;30.51;97263.56;5003310;28;1269;-79
2023/04/20 03:46:02;;;;;;;;;;;;;;;21.70;30.63;97270.78;4982546;28;1919;-79
2023/04/20 03:48:28;;;;;;;;;;;;;;;21.69;30.61;97268.44;4965906;28;1265;-79
2023/04/20 03:50:53;;;;;;;;;;;;;;;21.85;30.68;97266.16;4966807;28;1081;-78
2023/04/20 03:53:19;;;;;;;;;;;;;;;21.89;30.65;97271.69;4966042;28;1316;-78
2023/04/20 03:55:45;;;;;;;;;;;;;;;21.74;30.98;97265.78;4964677;28;1615;-78
2023/04/20 03:58:15;;;;;;;;;;;;;;;21.74;30.68;97265.00;4979029;28;1500;-79
2023/04/20 04:01:12;;;;;;;;;;;;;;;21.99;30.73;97255.53;4965031;28;1257;-79
2023/04/20 04:03:42;;;;;;;;;;;;;;;21.98;30.53;97262.47;4978390;28;1906;-78
2023/04/20 04:06:09;;;;;;;;;;;;;;;21.70;30.86;97267.97;4963555;28;1142;-76
2023/04/20 04:08:35;;;;;;;;;;;;;;;22.29;30.15;97274.56;4946254;28;1290;-79
2023/04/20 04:11:01;;;;;;;;;;;;;;;22.72;29.69;97269.94;4963178;28;1505;-79
2023/04/20 04:13:27;;;;;;;;;;;;;;;22.62;29.81;97262.66;4978217;28;1012;-78
2023/04/20 04:15:53;;;;;;;;;;;;;;;22.73;29.72;97270.72;4962856;28;949;-79
2023/04/20 04:18:19;;;;;;;;;;;;;;;22.15;30.26;97266.63;4962468;28;1258;-79
2023/04/20 04:20:45;;;;;;;;;;;;;;;22.07;30.52;97265.31;4962691;28;1104;-79
2023/04/20 04:23:11;;;;;;;;;;;;;;;21.81;30.39;97265.53;4974542;28;1219;-77
2023/04/20 04:25:48;;;;;;;;;;;;;;;21.59;31.18;97270.41;4984687;28;1906;-79
2023/04/20 04:28:18;;;;;;;;;;;;;;;22.02;30.98;97268.75;4998722;28;1139;-77
2023/04/20 04:31:04;;;;;;;;;;;;;;;22.48;30.48;97283.91;4978612;28;1269;-78
2023/04/20 04:33:35;;;;;;;;;;;;;;;22.61;30.14;97275.28;4962344;28;1261;-79
2023/04/20 04:36:03;;;;;;;;;;;;;;;22.28;30.33;97281.50;4962097;28;1184;-78
2023/04/20 04:38:32;;;;;;;;;;;;;;;22.10;30.41;97281.38;4961733;28;1232;-78
2023/04/20 04:40:58;;;;;;;;;;;;;;;21.88;30.49;97287.09;4962641;28;1240;-78
2023/04/20 04:43:24;;;;;;;;;;;;;;;21.86;30.58;97286.75;4945842;28;1339;-78
2023/04/20 04:46:14;;;;;;;;;;;;;;;21.96;30.39;97287.59;4962232;28;1236;-77
2023/04/20 04:48:41;;;;;;;;;;;;;;;21.89;30.66;97287.91;4962667;28;1244;-78
2023/04/20 04:51:09;;;;;;;;;;;;;;;21.64;31.34;97283.97;4962419;28;1417;-79
2023/04/20 04:53:35;;;;;;;;;;;;;;;22.19;30.71;97289.97;4961484;28;969;-78
2023/04/20 04:56:01;;;;;;;;;;;;;;;22.63;30.31;97289.75;4946105;28;1201;-78
2023/04/20 04:58:26;;;;;;;;;;;;;;;22.78;30.21;97285.06;4929664;28;963;-78
2023/04/20 05:00:52;;;;;;;;;;;;;;;21.95;31.13;97286.03;4962475;28;1092;-78
2023/04/20 05:03:18;;;;;;;;;;;;;;;21.81;31.50;97288.19;5014422;28;955;-78
2023/04/20 05:05:43;;;;;;;;;;;;;;;21.88;31.00;97280.66;4982324;28;1914;-77
2023/04/20 05:08:10;;;;;;;;;;;;;;;21.66;31.41;97292.81;4997429;28;909;-78
2023/04/20 05:10:35;;;;;;;;;;;;;;;22.39;31.06;97289.56;5014597;28;880;-79
2023/04/20 05:13:01;;;;;;;;;;;;;;;22.67;30.92;97292.47;4997975;28;978;-78
2023/04/20 05:15:26;;;;;;;;;;;;;;;22.68;30.61;97297.66;4998167;28;1130;-79
2023/04/20 05:17:52;;;;;;;;;;;;;;;22.51;30.46;97297.16;5014058;28;987;-78
2023/04/20 05:20:18;;;;;;;;;;;;;;;22.21;30.66;97298.78;4998106;28;1381;-78
2023/04/20 05:22:43;;;;;;;;;;;;;;;22.09;30.67;97296.81;4998237;28;1258;-78
2023/04/20 05:25:09;;;;;;;;;;;;;;;22.04;30.52;97298.19;5013930;28;1987;-78
2023/04/20 05:27:35;;;;;;;;;;;;;;;22.02;30.80;97297.06;5014452;28;955;-79
2023/04/20 05:30:00;;;;;;;;;;;;;;;21.82;30.99;97297.47;4997274;28;991;-78
2023/04/20 05:32:26;;;;;;;;;;;;;;;21.89;30.91;97302.06;4997715;28;891;-79
2023/04/20 05:34:51;;;;;;;;;;;;;;;21.98;31.09;97297.22;4981213;28;1428;-78
2023/04/20 05:37:17;;;;;;;;;;;;;;;21.92;30.94;97284.94;5014060;28;1019;-78
2023/04/20 05:39:43;;;;;;;;;;;;;;;21.87;31.21;97296.09;4996368;28;1007;-77
2023/04/20 05:42:08;;;;;;;;;;;;;;;21.61;31.64;97295.47;4996981;28;941;-79
2023/04/20 05:44:35;;;;;;;;;;;;;;;21.85;31.41;97305.81;4996157;28;1914;-78
2023/04/20 05:47:05;;;;;;;;;;;;;;;21.47;32.25;97302.44;4980259;28;1317;-78
2023/04/20 05:49:31;;;;;;;;;;;;;;;22.00;31.88;97316.59;4976736;28;1132;-78
2023/04/20 05:51:56;;;;;;;;;;;;;;;22.66;31.55;97314.34;4961034;28;1171;-79
2023/04/20 05:54:22;;;;;;;;;;;;;;;22.55;31.66;97317.63;4960560;28;1197;-78
2023/04/20 05:56:48;;;;;;;;;;;;;;;22.57;31.49;97314.31;4960351;28;1207;-78
2023/04/20 05:59:13;;;;;;;;;;;;;;;22.15;31.79;97317.63;4960461;28;938;-78
2023/04/20 06:01:39;;;;;;;;;;;;;;;22.02;31.60;97314.06;4960726;28;983;-78
2023/04/20 06:04:05;;;;;;;;;;;;;;;21.66;31.94;97312.63;4960281;28;2046;-78
2023/04/20 06:06:31;;;;;;;;;;;;;;;21.62;31.96;97319.69;4976831;28;1130;-78
2023/04/20 06:08:57;;;;;;;;;;;;;;;21.47;32.07;97314.53;4960478;28;992;-78
2023/04/20 06:11:22;;;;;;;;;;;;;;;21.88;31.88;97314.66;4975543;28;1021;-78
2023/04/20 06:13:48;;;;;;;;;;;;;;;22.44;31.89;97308.00;4979595;28;857;-79
2023/04/20 06:16:14;;;;;;;;;;;;;;;22.72;31.21;97315.31;4980036;28;1259;-79
2023/04/20 06:18:40;;;;;;;;;;;;;;;22.59;31.31;97301.28;4979532;28;829;-78
2023/04/20 06:21:07;;;;;;;;;;;;;;;22.20;31.51;97313.41;4992236;28;907;-79
2023/04/20 06:23:33;;;;;;;;;;;;;;;22.21;31.31;97315.78;4996395;28;1156;-79
2023/04/20 06:25:59;;;;;;;;;;;;;;;21.94;31.54;97302.25;4998211;28;1910;-78
2023/04/20 06:28:25;;;;;;;;;;;;;;;21.89;31.48;97310.56;5012743;28;851;-79
2023/04/20 06:30:50;;;;;;;;;;;;;;;21.89;31.46;97304.88;4997471;28;1388;-78
2023/04/20 06:33:16;;;;;;;;;;;;;;;21.65;31.91;97308.19;4980363;28;1312;-78
2023/04/20 06:35:42;;;;;;;;;;;;;;;22.14;31.77;97313.22;5016393;28;1000;-77
2023/04/20 06:38:07;;;;;;;;;;;;;;;22.70;31.15;97314.22;5015990;28;1193;-77
2023/04/20 06:40:33;;;;;;;;;;;;;;;22.75;31.17;97314.38;5000026;28;1237;-78
2023/04/20 06:42:59;;;;;;;;;;;;;;;22.54;30.99;97309.59;4999852;28;1236;-77
2023/04/20 06:45:24;;;;;;;;;;;;;;;21.66;31.93;97241.84;5017459;28;1922;-78
2023/04/20 06:47:50;;;;;;;;;;;;;;;21.91;31.75;97314.50;5017649;28;888;-79
2023/04/20 06:50:15;;;;;;;;;;;;;;;21.83;31.58;97316.81;5016507;28;1048;-77
2023/04/20 06:52:41;;;;;;;;;;;;;;;22.08;31.23;97317.91;5016102;28;1442;-78
2023/04/20 06:55:07;;;;;;;;;;;;;;;21.85;31.71;97314.31;4998566;28;979;-78
2023/04/20 06:57:32;;;;;;;;;;;;;;;22.00;31.41;97316.59;5015727;28;940;-78
2023/04/20 06:59:58;;;;;;;;;;;;;;;21.82;31.93;97311.63;4999920;28;1115;-78
2023/04/20 07:02:24;;;;;;;;;;;;;;;21.84;31.68;97315.56;5017418;28;838;-77
2023/04/20 07:04:49;;;;;;;;;;;;;;;21.97;31.76;97318.31;4999552;28;1902;-78
2023/04/20 07:07:15;;;;;;;;;;;;;;;21.72;32.09;97318.50;5015949;28;1230;-78
2023/04/20 07:09:41;;;;;;;;;;;;;;;21.90;31.93;97318.56;5019692;28;992;-77
2023/04/20 07:12:06;;;;;;;;;;;;;;;21.91;31.99;97319.38;4964237;28;1120;-77
2023/04/20 07:14:32;;;;;;;;;;;;;;;22.11;31.63;97316.97;4980016;28;948;-79
2023/04/20 07:16:57;;;;;;;;;;;;;;;21.96;31.90;97318.75;4964233;28;1130;-78
2023/04/20 07:19:23;;;;;;;;;;;;;;;21.90;32.61;97317.78;4979506;28;1024;-79
2023/04/20 07:21:49;;;;;;;;;;;;;;;22.56;31.93;97315.59;4964098;28;1117;-79
2023/04/20 07:24:14;;;;;;;;;;;;;;;22.84;31.75;97311.53;4979812;28;1898;-78
2023/04/20 07:26:40;;;;;;;;;;;;;;;22.79;31.76;97309.31;4980491;28;993;-78
2023/04/20 07:29:05;;;;;;;;;;;;;;;21.95;33.16;97308.69;4963667;28;1213;-78
2023/04/20 07:31:31;;;;;;;;;;;;;;;21.95;32.53;97311.53;4979830;28;1018;-78
2023/04/20 07:33:57;;;;;;;;;;;;;;;21.81;32.35;97310.84;4946640;28;1217;-78
2023/04/20 07:36:22;;;;;;;;;;;;;;;21.81;32.03;97313.69;4979352;28;1019;-79
2023/04/20 07:38:48;;;;;;;;;;;;;;;21.69;32.30;97314.53;4978941;28;1051;-78
2023/04/20 07:41:14;;;;;;;;;;;;;;;22.45;32.09;97318.09;4963333;28;1237;-78
2023/04/20 07:43:39;;;;;;;;;;;;;;;22.75;31.59;97319.28;4978851;28;1001;-79
2023/04/20 07:46:05;;;;;;;;;;;;;;;22.85;31.52;97327.31;4963603;28;1918;-78
2023/04/20 07:48:32;;;;;;;;;;;;;;;22.25;32.42;97326.97;4982324;28;981;-78
2023/04/20 07:50:57;;;;;;;;;;;;;;;21.96;32.70;97321.59;5020744;28;1206;-78
2023/04/20 07:53:23;;;;;;;;;;;;;;;22.14;32.25;97324.56;5002938;28;1117;-78
2023/04/20 07:55:48;;;;;;;;;;;;;;;22.06;31.87;97326.84;5003487;28;1243;-78
2023/04/20 07:58:15;;;;;;;;;;;;;;;21.78;32.62;97317.41;5019330;28;884;-79
2023/04/20 08:00:40;;;;;;;;;;;;;;;21.61;32.77;97321.72;4982645;28;982;-79
2023/04/20 08:03:06;;;;;;;;;;;;;;;21.85;32.64;97328.47;4998260;28;900;-78
2023/04/20 08:05:31;;;;;;;;;;;;;;;21.78;32.30;97328.75;4982523;28;1906;-78
2023/04/20 08:07:58;;;;;;;;;;;;;;;22.01;32.96;97329.50;4965851;28;1077;-78
2023/04/20 08:10:23;;;;;;;;;;;;;;;22.52;32.61;97332.72;4998005;28;937;-78
2023/04/20 08:12:49;;;;;;;;;;;;;;;22.76;31.89;97327.31;4965763;28;961;-77
2023/04/20 08:15:15;;;;;;;;;;;;;;;22.46;32.66;97336.66;4981971;28;1260;-78
2023/04/20 08:17:40;;;;;;;;;;;;;;;22.06;32.81;97328.88;4966037;28;1323;-77
2023/04/20 08:20:06;;;;;;;;;;;;;;;21.84;32.99;97326.88;4949212;28;1098;-78
2023/04/20 08:22:32;;;;;;;;;;;;;;;22.14;32.28;97327.41;4982023;28;1322;-79
2023/04/20 08:24:58;;;;;;;;;;;;;;;21.97;32.25;97329.66;4981476;28;1895;-78
2023/04/20 08:27:24;;;;;;;;;;;;;;;21.99;32.35;97332.00;4981889;28;910;-78
2023/04/20 08:29:49;;;;;;;;;;;;;;;21.91;32.33;97325.81;4981527;28;1110;-78
2023/04/20 08:32:17;;;;;;;;;;;;;;;22.29;31.71;97334.09;5009172;28;933;-77
2023/04/20 08:34:43;;;;;;;;;;;;;;;21.81;32.23;97327.84;5002083;28;1313;-78
2023/04/20 08:37:08;;;;;;;;;;;;;;;21.91;32.39;97331.47;5018338;28;1206;-78
2023/04/20 08:39:35;;;;;;;;;;;;;;;21.92;32.45;97323.81;5017879;28;979;-77
2023/04/20 08:42:01;;;;;;;;;;;;;;;21.91;32.32;97325.03;5018610;28;1108;-77
2023/04/20 08:44:26;;;;;;;;;;;;;;;22.00;32.09;97330.75;5018126;28;1879;-78
2023/04/20 08:46:53;;;;;;;;;;;;;;;22.47;32.41;97326.91;5019231;28;941;-78
2023/04/20 08:49:18;;;;;;;;;;;;;;;22.82;32.13;97336.75;5018113;28;1084;-78
2023/04/20 08:51:44;;;;;;;;;;;;;;;22.94;32.09;97331.44;5018265;28;974;-78
2023/04/20 08:54:10;;;;;;;;;;;;;;;22.83;32.09;97332.66;5018000;28;1016;-77
2023/04/20 08:56:39;;;;;;;;;;;;;;;22.77;32.43;97333.75;4961304;28;996;-78
2023/04/20 08:59:07;;;;;;;;;;;;;;;22.30;32.69;97340.53;4938558;29;1073;-78
2023/04/20 09:01:34;;;;;;;;;;;;;;;22.22;32.88;97340.00;4939311;29;1037;-78
2023/04/20 09:04:00;;;;;;;;;;;;;;;22.29;31.85;97331.25;4923142;29;1894;-78
2023/04/20 09:06:25;;;;;;;;;;;;;;;22.19;32.02;97338.13;4923606;29;1148;-76
2023/04/20 09:08:51;;;;;;;;;;;;;;;22.07;32.03;97333.28;4922901;29;1173;-78
2023/04/20 09:11:26;;;;;;;;;;;;;;;22.03;32.25;97324.16;4923333;29;1299;-78
2023/04/20 09:13:58;;;;;;;;;;;;;;;21.94;32.22;97329.78;4923136;29;989;-77
2023/04/20 09:16:24;;;;;;;;;;;;;;;21.92;32.14;97329.47;4923938;29;1310;-78
2023/04/20 09:18:53;;;;;;;;;;;;;;;21.94;31.93;97324.13;4938523;29;1089;-78
2023/04/20 09:21:19;;;;;;;;;;;;;;;22.15;31.83;97328.97;4919710;29;1004;-77
2023/04/20 09:23:54;;;;;;;;;;;;;;;22.77;31.92;97328.09;4903671;29;1246;-78
2023/04/20 09:26:20;;;;;;;;;;;;;;;22.90;31.67;97331.63;4919879;29;968;-78
2023/04/20 09:28:46;;;;;;;;;;;;;;;22.87;31.71;97329.69;4900526;29;1036;-78
2023/04/20 09:31:20;;;;;;;;;;;;;;;22.49;32.08;97330.06;4936679;29;979;-76
2023/04/20 09:33:58;;;;;;;;;;;;;;;21.93;32.47;97319.72;4922172;29;983;-78
2023/04/20 09:36:33;;;;;;;;;;;;;;;21.89;32.38;97321.88;4938873;29;1078;-78
2023/04/20 09:39:17;;;;;;;;;;;;;;;21.82;32.17;97315.25;4938678;29;945;-77
2023/04/20 09:41:43;;;;;;;;;;;;;;;22.53;32.11;97327.84;4938463;29;967;-78
2023/04/20 09:44:09;;;;;;;;;;;;;;;22.87;31.81;97327.63;4937805;29;1911;-78
2023/04/20 09:46:35;;;;;;;;;;;;;;;23.08;31.29;97330.84;4938652;29;1219;-78
2023/04/20 09:49:02;;;;;;;;;;;;;;;22.41;32.27;97323.09;4938308;29;1065;-78
2023/04/20 09:51:28;;;;;;;;;;;;;;;22.20;32.31;97328.38;4947698;28;1113;-77
2023/04/20 09:53:57;;;;;;;;;;;;;;;22.15;32.09;97331.81;4963654;28;1029;-77
2023/04/20 09:56:22;;;;;;;;;;;;;;;22.05;32.48;97324.47;4980485;28;1001;-78
2023/04/20 09:58:48;;;;;;;;;;;;;;;22.01;32.28;97326.66;4979825;28;1019;-78
2023/04/20 10:01:14;;;;;;;;;;;;;;;22.10;32.12;97326.72;4996682;28;965;-78
2023/04/20 10:03:42;;;;;;;;;;;;;;;21.91;32.70;97320.16;4979818;28;1010;-78
2023/04/20 10:06:21;;;;;;;;;;;;;;;22.12;31.97;97329.88;4996441;28;1910;-78
2023/04/20 10:08:48;;;;;;;;;;;;;;;21.68;32.87;97312.16;5016345;28;929;-77
2023/04/20 10:11:35;;;;;;;;;;;;;;;21.84;32.51;97321.22;5000733;28;1238;-78
2023/04/20 10:14:12;;;;;;;;;;;;;;;22.20;32.35;97328.38;5000178;28;1222;-78
2023/04/20 10:16:38;;;;;;;;;;;;;;;22.58;32.59;97315.91;4996294;28;2021;-78
2023/04/20 10:19:03;;;;;;;;;;;;;;;22.78;32.50;97312.63;4997718;28;989;-77
2023/04/20 10:21:31;;;;;;;;;;;;;;;22.85;32.69;97324.50;4996667;28;1011;-78
2023/04/20 10:23:59;;;;;;;;;;;;;;;22.71;32.64;97319.41;4980547;28;1964;-78
2023/04/20 10:26:35;;;;;;;;;;;;;;;22.06;33.64;97320.38;4980852;28;1149;-77
2023/04/20 10:29:01;;;;;;;;;;;;;;;22.16;33.02;97324.88;4996489;28;1008;-78
2023/04/20 10:31:35;;;;;;;;;;;;;;;22.18;32.49;97328.06;4964271;28;1128;-77
2023/04/20 10:34:00;;;;;;;;;;;;;;;22.04;32.80;97328.56;4996672;28;1147;-78
2023/04/20 10:36:29;;;;;;;;;;;;;;;22.07;32.66;97330.47;4996661;28;1139;-78
2023/04/20 10:38:55;;;;;;;;;;;;;;;22.12;32.37;97332.72;4996648;28;959;-77
2023/04/20 10:41:21;;;;;;;;;;;;;;;22.06;32.19;97335.34;4996618;28;927;-78
2023/04/20 10:43:46;;;;;;;;;;;;;;;21.88;32.50;97325.97;4995974;28;872;-79
2023/04/20 10:46:13;;;;;;;;;;;;;;;22.02;32.51;97331.06;4996472;28;1984;-77
2023/04/20 10:48:47;;;;;;;;;;;;;;;21.98;32.35;97319.09;5012534;28;1122;-77
2023/04/20 10:51:13;;;;;;;;;;;;;;;22.56;32.20;97336.22;4980561;28;1103;-78
2023/04/20 10:53:39;;;;;;;;;;;;;;;22.73;32.54;97333.13;4997066;28;900;-77
2023/04/20 10:56:04;;;;;;;;;;;;;;;22.75;32.71;97341.97;4996616;28;942;-79
2023/04/20 10:58:30;;;;;;;;;;;;;;;22.83;32.70;97337.56;4995624;28;940;-78
2023/04/20 11:00:56;;;;;;;;;;;;;;;22.36;32.88;97345.13;4996602;28;900;-78
2023/04/20 11:03:22;;;;;;;;;;;;;;;21.95;33.13;97331.34;4995973;28;998;-78
2023/04/20 11:05:48;;;;;;;;;;;;;;;21.90;32.95;97329.13;4996836;28;1914;-78
2023/04/20 11:08:14;;;;;;;;;;;;;;;22.16;32.36;97330.53;5012393;28;900;-78
2023/04/20 11:10:40;;;;;;;;;;;;;;;22.07;32.68;97321.97;4975510;28;1344;-78
2023/04/20 11:13:07;;;;;;;;;;;;;;;21.85;33.13;97314.31;4959240;28;913;-77
2023/04/20 11:15:32;;;;;;;;;;;;;;;21.97;32.73;97314.69;4959802;28;963;-77
2023/04/20 11:18:08;;;;;;;;;;;;;;;22.00;32.56;97310.94;4943302;28;1339;-77
2023/04/20 11:20:33;;;;;;;;;;;;;;;22.14;32.20;97318.91;4959650;28;925;-78
2023/04/20 11:22:59;;;;;;;;;;;;;;;21.97;32.83;97311.88;4959248;28;992;-77
2023/04/20 11:25:25;;;;;;;;;;;;;;;21.91;32.68;97319.38;4959361;28;1914;-77
2023/04/20 11:27:51;;;;;;;;;;;;;;;22.37;32.09;97320.41;4965427;28;1032;-78
2023/04/20 11:30:16;;;;;;;;;;;;;;;22.09;32.21;97325.13;4978583;28;1265;-78
2023/04/20 11:32:42;;;;;;;;;;;;;;;22.07;32.21;97321.97;4978805;28;1206;-78
2023/04/20 11:35:09;;;;;;;;;;;;;;;22.60;32.70;97327.56;4994516;28;1077;-78
2023/04/20 11:37:54;;;;;;;;;;;;;;;22.83;32.79;97321.31;4978490;28;1044;-77
2023/04/20 11:40:20;;;;;;;;;;;;;;;22.97;32.82;97319.97;4978920;28;1158;-78
2023/04/20 11:42:46;;;;;;;;;;;;;;;22.92;32.89;97325.47;4995995;28;977;-77
2023/04/20 11:45:11;;;;;;;;;;;;;;;22.37;33.36;97323.22;4995368;28;1975;-78
2023/04/20 11:47:39;;;;;;;;;;;;;;;22.27;32.89;97319.56;4996074;28;983;-78
2023/04/20 11:50:06;;;;;;;;;;;;;;;22.16;32.84;97327.72;4996571;28;1073;-78
2023/04/20 11:52:32;;;;;;;;;;;;;;;22.01;32.57;97323.81;4997015;28;1255;-78
2023/04/20 11:54:57;;;;;;;;;;;;;;;21.66;32.97;97321.13;4997373;28;976;-77
2023/04/20 11:57:24;;;;;;;;;;;;;;;21.76;32.58;97316.28;5000436;28;958;-78
2023/04/20 11:59:50;;;;;;;;;;;;;;;21.74;32.50;97319.59;4999566;28;1066;-79
2023/04/20 12:02:15;;;;;;;;;;;;;;;22.48;32.76;97317.13;4999825;28;941;-78
2023/04/20 12:04:41;;;;;;;;;;;;;;;22.76;32.02;97321.63;5000287;28;1894;-78
2023/04/20 12:07:06;;;;;;;;;;;;;;;22.70;32.04;97326.34;4999637;28;882;-78
2023/04/20 12:09:37;;;;;;;;;;;;;;;22.44;32.12;97325.00;4998851;28;956;-78
2023/04/20 12:12:03;;;;;;;;;;;;;;;22.18;32.27;97328.06;4999460;28;934;-78
2023/04/20 12:14:28;;;;;;;;;;;;;;;22.08;32.03;97323.56;4998891;28;998;-79
2023/04/20 12:16:54;;;;;;;;;;;;;;;22.01;31.62;97313.28;4999747;28;966;-78
2023/04/20 12:19:20;;;;;;;;;;;;;;;21.70;32.36;97323.81;4997484;28;984;-78
2023/04/20 12:21:46;;;;;;;;;;;;;;;22.14;32.13;97321.72;4943162;29;1265;-78
2023/04/20 12:24:12;;;;;;;;;;;;;;;22.62;32.09;97316.53;4943003;29;1914;-78
2023/04/20 12:26:38;;;;;;;;;;;;;;;22.83;31.69;97306.34;4943867;29;1015;-78
2023/04/20 12:29:03;;;;;;;;;;;;;;;22.29;32.29;97311.41;4943112;29;1201;-78
2023/04/20 12:31:29;;;;;;;;;;;;;;;22.15;32.27;97309.13;4927820;29;1201;-78
2023/04/20 12:33:55;;;;;;;;;;;;;;;21.92;32.67;97304.75;4927509;29;979;-78
2023/04/20 12:36:21;;;;;;;;;;;;;;;21.97;32.13;97311.88;4942967;29;1029;-78
2023/04/20 12:38:46;;;;;;;;;;;;;;;21.95;32.52;97303.03;4926564;29;1090;-78
2023/04/20 12:41:12;;;;;;;;;;;;;;;22.26;31.90;97301.00;4927279;29;1048;-78
2023/04/20 12:43:38;;;;;;;;;;;;;;;22.61;32.22;97309.31;4942692;29;961;-78
2023/04/20 12:46:04;;;;;;;;;;;;;;;22.89;31.93;97307.31;4905144;29;1935;-78
2023/04/20 12:48:29;;;;;;;;;;;;;;;23.12;31.54;97303.91;4904503;29;1213;-78
2023/04/20 12:50:55;;;;;;;;;;;;;;;22.61;31.78;97312.13;4904969;29;984;-78
2023/04/20 12:53:20;;;;;;;;;;;;;;;22.28;32.68;97298.50;4963750;28;951;-78
2023/04/20 12:55:46;;;;;;;;;;;;;;;22.28;31.97;97309.84;4962682;28;1009;-78
2023/04/20 12:58:12;;;;;;;;;;;;;;;22.10;32.29;97310.53;4978000;28;1052;-78